sensor_id;sensor_type;location;lat;lon;timestamp;P1;durP1;ratioP1;P2;durP2;ratioP2
41043;SDS011;51680;49.806;18.774;2022-07-23T00:02:29;14.73;;;8.93;;
41043;SDS011;51680;49.806;18.774;2022-07-23T00:05:32;13.65;;;8.75;;
41043;SDS011;51680;49.806;18.774;2022-07-23T00:08:34;14.50;;;8.10;;
41043;SDS011;51680;49.806;18.774;2022-07-23T00:11:36;11.43;;;8.65;;
41043;SDS011;51680;49.806;18.774;2022-07-23T00:14:37;11.75;;;8.23;;
41043;SDS011;51680;49.806;18.774;2022-07-23T00:17:39;25.25;;;8.43;;
41043;SDS011;51680;49.806;18.774;2022-07-23T00:20:42;13.02;;;8.35;;
41043;SDS011;51680;49.806;18.774;2022-07-23T00:23:44;10.07;;;7.77;;
41043;SDS011;51680;49.806;18.774;2022-07-23T00:26:46;10.20;;;7.20;;
41043;SDS011;51680;49.806;18.774;2022-07-23T00:29:47;13.68;;;7.55;;
41043;SDS011;51680;49.806;18.774;2022-07-23T00:32:51;14.13;;;7.90;;
41043;SDS011;51680;49.806;18.774;2022-07-23T00:38:56;13.40;;;8.40;;
41043;SDS011;51680;49.806;18.774;2022-07-23T00:41:58;11.70;;;7.72;;
41043;SDS011;51680;49.806;18.774;2022-07-23T00:45:00;15.18;;;8.00;;
41043;SDS011;51680;49.806;18.774;2022-07-23T00:48:20;13.68;;;7.68;;
41043;SDS011;51680;49.806;18.774;2022-07-23T00:51:24;16.23;;;8.40;;
41043;SDS011;51680;49.806;18.774;2022-07-23T00:54:26;9.57;;;7.38;;
41043;SDS011;51680;49.806;18.774;2022-07-23T00:57:28;15.13;;;8.55;;
41043;SDS011;51680;49.806;18.774;2022-07-23T01:00:49;10.63;;;8.20;;
41043;SDS011;51680;49.806;18.774;2022-07-23T01:03:51;12.10;;;7.82;;
41043;SDS011;51680;49.806;18.774;2022-07-23T01:06:54;13.57;;;7.65;;
41043;SDS011;51680;49.806;18.774;2022-07-23T01:09:56;11.83;;;7.87;;
41043;SDS011;51680;49.806;18.774;2022-07-23T01:12:59;12.13;;;8.25;;
41043;SDS011;51680;49.806;18.774;2022-07-23T01:16:02;10.45;;;7.70;;
41043;SDS011;51680;49.806;18.774;2022-07-23T01:19:04;11.85;;;8.15;;
41043;SDS011;51680;49.806;18.774;2022-07-23T01:22:08;10.43;;;7.78;;
41043;SDS011;51680;49.806;18.774;2022-07-23T01:25:12;12.88;;;8.15;;
41043;SDS011;51680;49.806;18.774;2022-07-23T01:28:19;12.88;;;8.07;;
41043;SDS011;51680;49.806;18.774;2022-07-23T01:31:23;13.18;;;7.45;;
41043;SDS011;51680;49.806;18.774;2022-07-23T01:34:25;14.77;;;7.60;;
41043;SDS011;51680;49.806;18.774;2022-07-23T01:37:27;11.32;;;7.13;;
41043;SDS011;51680;49.806;18.774;2022-07-23T01:40:31;12.70;;;8.43;;
41043;SDS011;51680;49.806;18.774;2022-07-23T01:43:33;11.27;;;7.60;;
41043;SDS011;51680;49.806;18.774;2022-07-23T01:46:36;14.85;;;7.53;;
41043;SDS011;51680;49.806;18.774;2022-07-23T01:49:40;9.13;;;6.70;;
41043;SDS011;51680;49.806;18.774;2022-07-23T01:52:45;9.25;;;7.60;;
41043;SDS011;51680;49.806;18.774;2022-07-23T01:55:48;11.73;;;7.80;;
41043;SDS011;51680;49.806;18.774;2022-07-23T01:58:50;10.10;;;7.70;;
41043;SDS011;51680;49.806;18.774;2022-07-23T02:01:53;11.55;;;7.60;;
41043;SDS011;51680;49.806;18.774;2022-07-23T02:04:55;19.73;;;8.07;;
41043;SDS011;51680;49.806;18.774;2022-07-23T02:08:00;13.25;;;8.55;;
41043;SDS011;51680;49.806;18.774;2022-07-23T02:11:07;11.43;;;8.15;;
41043;SDS011;51680;49.806;18.774;2022-07-23T02:14:09;15.30;;;8.37;;
41043;SDS011;51680;49.806;18.774;2022-07-23T02:17:11;11.48;;;7.65;;
41043;SDS011;51680;49.806;18.774;2022-07-23T02:20:12;13.23;;;8.20;;
41043;SDS011;51680;49.806;18.774;2022-07-23T02:23:17;10.25;;;7.65;;
41043;SDS011;51680;49.806;18.774;2022-07-23T02:26:21;12.82;;;7.47;;
41043;SDS011;51680;49.806;18.774;2022-07-23T02:29:25;10.75;;;7.68;;
41043;SDS011;51680;49.806;18.774;2022-07-23T02:32:28;12.70;;;7.38;;
41043;SDS011;51680;49.806;18.774;2022-07-23T02:35:30;11.52;;;7.38;;
41043;SDS011;51680;49.806;18.774;2022-07-23T02:38:35;11.63;;;7.95;;
41043;SDS011;51680;49.806;18.774;2022-07-23T02:41:39;10.55;;;7.70;;
41043;SDS011;51680;49.806;18.774;2022-07-23T02:44:41;10.90;;;7.50;;
41043;SDS011;51680;49.806;18.774;2022-07-23T02:47:43;12.07;;;7.60;;
41043;SDS011;51680;49.806;18.774;2022-07-23T02:50:45;13.50;;;7.53;;
41043;SDS011;51680;49.806;18.774;2022-07-23T02:53:50;14.60;;;7.90;;
41043;SDS011;51680;49.806;18.774;2022-07-23T02:56:53;11.80;;;7.13;;
41043;SDS011;51680;49.806;18.774;2022-07-23T02:59:55;9.27;;;7.33;;
41043;SDS011;51680;49.806;18.774;2022-07-23T03:02:56;9.93;;;7.50;;
41043;SDS011;51680;49.806;18.774;2022-07-23T03:05:58;11.60;;;7.45;;
41043;SDS011;51680;49.806;18.774;2022-07-23T03:09:00;11.65;;;8.07;;
41043;SDS011;51680;49.806;18.774;2022-07-23T03:12:04;10.88;;;7.20;;
41043;SDS011;51680;49.806;18.774;2022-07-23T03:15:08;11.75;;;7.25;;
41043;SDS011;51680;49.806;18.774;2022-07-23T03:18:11;10.30;;;7.03;;
41043;SDS011;51680;49.806;18.774;2022-07-23T03:21:13;11.63;;;7.65;;
41043;SDS011;51680;49.806;18.774;2022-07-23T03:24:15;13.57;;;7.10;;
41043;SDS011;51680;49.806;18.774;2022-07-23T03:27:19;14.50;;;7.40;;
41043;SDS011;51680;49.806;18.774;2022-07-23T03:30:21;10.45;;;7.07;;
41043;SDS011;51680;49.806;18.774;2022-07-23T03:33:41;13.07;;;7.25;;
41043;SDS011;51680;49.806;18.774;2022-07-23T03:36:44;12.15;;;7.28;;
41043;SDS011;51680;49.806;18.774;2022-07-23T03:39:46;13.30;;;7.47;;
41043;SDS011;51680;49.806;18.774;2022-07-23T03:42:49;11.82;;;7.55;;
41043;SDS011;51680;49.806;18.774;2022-07-23T03:45:51;10.87;;;7.73;;
41043;SDS011;51680;49.806;18.774;2022-07-23T03:48:53;12.40;;;7.70;;
41043;SDS011;51680;49.806;18.774;2022-07-23T03:51:54;10.65;;;7.85;;
41043;SDS011;51680;49.806;18.774;2022-07-23T03:54:56;11.23;;;7.53;;
41043;SDS011;51680;49.806;18.774;2022-07-23T03:58:18;12.75;;;7.45;;
41043;SDS011;51680;49.806;18.774;2022-07-23T04:01:20;11.05;;;6.90;;
41043;SDS011;51680;49.806;18.774;2022-07-23T04:04:22;11.15;;;6.93;;
41043;SDS011;51680;49.806;18.774;2022-07-23T04:07:24;12.77;;;6.75;;
41043;SDS011;51680;49.806;18.774;2022-07-23T04:10:27;12.85;;;7.45;;
41043;SDS011;51680;49.806;18.774;2022-07-23T04:13:30;10.30;;;6.50;;
41043;SDS011;51680;49.806;18.774;2022-07-23T04:16:35;8.93;;;6.57;;
41043;SDS011;51680;49.806;18.774;2022-07-23T04:19:37;17.27;;;6.95;;
41043;SDS011;51680;49.806;18.774;2022-07-23T04:25:42;14.43;;;7.00;;
41043;SDS011;51680;49.806;18.774;2022-07-23T04:29:04;13.88;;;7.00;;
41043;SDS011;51680;49.806;18.774;2022-07-23T04:32:06;13.70;;;7.20;;
41043;SDS011;51680;49.806;18.774;2022-07-23T04:35:08;8.75;;;6.40;;
41043;SDS011;51680;49.806;18.774;2022-07-23T04:38:10;9.98;;;6.75;;
41043;SDS011;51680;49.806;18.774;2022-07-23T04:41:13;10.38;;;6.72;;
41043;SDS011;51680;49.806;18.774;2022-07-23T04:44:16;12.05;;;6.82;;
41043;SDS011;51680;49.806;18.774;2022-07-23T04:47:18;13.68;;;7.22;;
41043;SDS011;51680;49.806;18.774;2022-07-23T04:50:20;9.93;;;6.72;;
41043;SDS011;51680;49.806;18.774;2022-07-23T04:56:28;14.60;;;7.35;;
41043;SDS011;51680;49.806;18.774;2022-07-23T04:59:31;11.88;;;7.10;;
41043;SDS011;51680;49.806;18.774;2022-07-23T05:02:37;12.10;;;7.50;;
41043;SDS011;51680;49.806;18.774;2022-07-23T05:05:39;8.23;;;6.88;;
41043;SDS011;51680;49.806;18.774;2022-07-23T05:08:47;10.40;;;7.13;;
41043;SDS011;51680;49.806;18.774;2022-07-23T05:11:49;12.95;;;7.72;;
41043;SDS011;51680;49.806;18.774;2022-07-23T05:14:52;12.45;;;7.75;;
41043;SDS011;51680;49.806;18.774;2022-07-23T05:17:55;13.00;;;6.88;;
41043;SDS011;51680;49.806;18.774;2022-07-23T05:20:57;11.07;;;7.15;;
41043;SDS011;51680;49.806;18.774;2022-07-23T05:23:58;9.45;;;6.93;;
41043;SDS011;51680;49.806;18.774;2022-07-23T05:27:01;11.45;;;6.85;;
41043;SDS011;51680;49.806;18.774;2022-07-23T05:30:05;12.18;;;7.03;;
41043;SDS011;51680;49.806;18.774;2022-07-23T05:33:10;16.33;;;7.15;;
41043;SDS011;51680;49.806;18.774;2022-07-23T05:36:13;9.80;;;7.00;;
41043;SDS011;51680;49.806;18.774;2022-07-23T05:39:21;20.15;;;9.80;;
41043;SDS011;51680;49.806;18.774;2022-07-23T05:42:23;15.98;;;9.15;;
41043;SDS011;51680;49.806;18.774;2022-07-23T05:45:26;17.92;;;9.40;;
41043;SDS011;51680;49.806;18.774;2022-07-23T05:48:29;19.95;;;9.93;;
41043;SDS011;51680;49.806;18.774;2022-07-23T05:51:37;20.08;;;10.10;;
41043;SDS011;51680;49.806;18.774;2022-07-23T05:54:39;19.75;;;10.27;;
41043;SDS011;51680;49.806;18.774;2022-07-23T05:57:42;21.30;;;9.13;;
41043;SDS011;51680;49.806;18.774;2022-07-23T06:00:45;23.17;;;9.77;;
41043;SDS011;51680;49.806;18.774;2022-07-23T06:03:47;18.55;;;9.18;;
41043;SDS011;51680;49.806;18.774;2022-07-23T06:06:48;20.70;;;9.85;;
41043;SDS011;51680;49.806;18.774;2022-07-23T06:09:50;19.27;;;9.50;;
41043;SDS011;51680;49.806;18.774;2022-07-23T06:12:52;16.75;;;9.40;;
41043;SDS011;51680;49.806;18.774;2022-07-23T06:15:56;20.40;;;9.63;;
41043;SDS011;51680;49.806;18.774;2022-07-23T06:18:57;20.25;;;9.10;;
41043;SDS011;51680;49.806;18.774;2022-07-23T06:22:01;14.43;;;8.80;;
41043;SDS011;51680;49.806;18.774;2022-07-23T06:25:04;17.45;;;8.45;;
41043;SDS011;51680;49.806;18.774;2022-07-23T06:28:07;10.95;;;7.18;;
41043;SDS011;51680;49.806;18.774;2022-07-23T06:31:29;13.93;;;7.78;;
41043;SDS011;51680;49.806;18.774;2022-07-23T06:34:31;13.27;;;7.93;;
41043;SDS011;51680;49.806;18.774;2022-07-23T06:37:33;14.70;;;7.35;;
41043;SDS011;51680;49.806;18.774;2022-07-23T06:40:35;13.20;;;7.82;;
41043;SDS011;51680;49.806;18.774;2022-07-23T06:43:37;14.90;;;7.80;;
41043;SDS011;51680;49.806;18.774;2022-07-23T06:46:43;11.05;;;7.35;;
41043;SDS011;51680;49.806;18.774;2022-07-23T06:49:45;10.77;;;7.78;;
41043;SDS011;51680;49.806;18.774;2022-07-23T06:52:47;16.25;;;7.57;;
41043;SDS011;51680;49.806;18.774;2022-07-23T06:55:49;16.23;;;8.10;;
41043;SDS011;51680;49.806;18.774;2022-07-23T06:58:51;12.07;;;7.63;;
41043;SDS011;51680;49.806;18.774;2022-07-23T07:01:54;12.45;;;7.90;;
41043;SDS011;51680;49.806;18.774;2022-07-23T07:04:57;14.25;;;7.47;;
41043;SDS011;51680;49.806;18.774;2022-07-23T07:07:59;13.38;;;7.60;;
41043;SDS011;51680;49.806;18.774;2022-07-23T07:11:01;15.85;;;7.72;;
41043;SDS011;51680;49.806;18.774;2022-07-23T07:14:04;17.10;;;7.53;;
41043;SDS011;51680;49.806;18.774;2022-07-23T07:17:08;21.10;;;8.00;;
41043;SDS011;51680;49.806;18.774;2022-07-23T07:20:10;8.25;;;7.00;;
41043;SDS011;51680;49.806;18.774;2022-07-23T07:23:12;10.48;;;7.43;;
41043;SDS011;51680;49.806;18.774;2022-07-23T07:26:14;13.90;;;8.15;;
41043;SDS011;51680;49.806;18.774;2022-07-23T07:29:16;11.43;;;7.13;;
41043;SDS011;51680;49.806;18.774;2022-07-23T07:32:19;12.65;;;6.07;;
41043;SDS011;51680;49.806;18.774;2022-07-23T07:35:21;10.27;;;6.97;;
41043;SDS011;51680;49.806;18.774;2022-07-23T07:38:22;10.52;;;6.90;;
41043;SDS011;51680;49.806;18.774;2022-07-23T07:41:24;11.90;;;7.43;;
41043;SDS011;51680;49.806;18.774;2022-07-23T07:44:26;8.95;;;6.57;;
41043;SDS011;51680;49.806;18.774;2022-07-23T07:47:30;15.40;;;7.53;;
41043;SDS011;51680;49.806;18.774;2022-07-23T07:50:31;14.32;;;6.95;;
41043;SDS011;51680;49.806;18.774;2022-07-23T07:53:33;11.85;;;7.13;;
41043;SDS011;51680;49.806;18.774;2022-07-23T07:56:35;17.60;;;8.85;;
41043;SDS011;51680;49.806;18.774;2022-07-23T07:59:36;13.80;;;7.78;;
41043;SDS011;51680;49.806;18.774;2022-07-23T08:02:43;12.10;;;7.75;;
41043;SDS011;51680;49.806;18.774;2022-07-23T08:05:45;12.20;;;8.10;;
41043;SDS011;51680;49.806;18.774;2022-07-23T08:08:47;11.43;;;7.53;;
41043;SDS011;51680;49.806;18.774;2022-07-23T08:11:49;11.90;;;6.75;;
41043;SDS011;51680;49.806;18.774;2022-07-23T08:14:51;8.90;;;6.70;;
41043;SDS011;51680;49.806;18.774;2022-07-23T08:17:55;8.93;;;6.43;;
41043;SDS011;51680;49.806;18.774;2022-07-23T08:20:57;12.13;;;7.07;;
41043;SDS011;51680;49.806;18.774;2022-07-23T08:23:58;16.85;;;6.80;;
41043;SDS011;51680;49.806;18.774;2022-07-23T08:27:00;12.52;;;6.93;;
41043;SDS011;51680;49.806;18.774;2022-07-23T08:30:03;9.07;;;6.87;;
41043;SDS011;51680;49.806;18.774;2022-07-23T08:33:08;11.90;;;7.20;;
41043;SDS011;51680;49.806;18.774;2022-07-23T08:36:13;12.27;;;6.65;;
41043;SDS011;51680;49.806;18.774;2022-07-23T08:39:15;11.25;;;6.53;;
41043;SDS011;51680;49.806;18.774;2022-07-23T08:42:17;11.38;;;6.65;;
41043;SDS011;51680;49.806;18.774;2022-07-23T08:45:21;12.30;;;6.90;;
41043;SDS011;51680;49.806;18.774;2022-07-23T08:48:26;9.00;;;6.20;;
41043;SDS011;51680;49.806;18.774;2022-07-23T08:51:29;9.45;;;5.90;;
41043;SDS011;51680;49.806;18.774;2022-07-23T08:54:31;8.13;;;6.47;;
41043;SDS011;51680;49.806;18.774;2022-07-23T08:57:32;11.27;;;6.40;;
41043;SDS011;51680;49.806;18.774;2022-07-23T09:00:34;12.45;;;6.38;;
41043;SDS011;51680;49.806;18.774;2022-07-23T09:03:37;9.82;;;5.90;;
41043;SDS011;51680;49.806;18.774;2022-07-23T09:06:39;11.68;;;6.60;;
41043;SDS011;51680;49.806;18.774;2022-07-23T09:09:41;11.77;;;6.22;;
41043;SDS011;51680;49.806;18.774;2022-07-23T09:12:43;15.00;;;6.38;;
41043;SDS011;51680;49.806;18.774;2022-07-23T09:15:48;9.45;;;5.82;;
41043;SDS011;51680;49.806;18.774;2022-07-23T09:18:52;10.20;;;6.28;;
41043;SDS011;51680;49.806;18.774;2022-07-23T09:21:55;6.82;;;5.80;;
41043;SDS011;51680;49.806;18.774;2022-07-23T09:25:20;9.05;;;6.03;;
41043;SDS011;51680;49.806;18.774;2022-07-23T09:28:21;8.82;;;5.80;;
41043;SDS011;51680;49.806;18.774;2022-07-23T09:31:24;11.13;;;6.43;;
41043;SDS011;51680;49.806;18.774;2022-07-23T09:37:33;11.90;;;6.50;;
41043;SDS011;51680;49.806;18.774;2022-07-23T09:40:35;9.90;;;6.10;;
41043;SDS011;51680;49.806;18.774;2022-07-23T09:43:36;9.95;;;6.30;;
41043;SDS011;51680;49.806;18.774;2022-07-23T09:46:38;10.48;;;5.78;;
41043;SDS011;51680;49.806;18.774;2022-07-23T09:49:43;10.60;;;5.40;;
41043;SDS011;51680;49.806;18.774;2022-07-23T09:52:59;11.35;;;5.45;;
41043;SDS011;51680;49.806;18.774;2022-07-23T09:56:01;49.15;;;8.23;;
41043;SDS011;51680;49.806;18.774;2022-07-23T09:59:03;7.25;;;5.05;;
41043;SDS011;51680;49.806;18.774;2022-07-23T10:02:06;13.82;;;5.72;;
41043;SDS011;51680;49.806;18.774;2022-07-23T10:05:21;8.98;;;5.72;;
41043;SDS011;51680;49.806;18.774;2022-07-23T10:08:46;8.45;;;4.95;;
41043;SDS011;51680;49.806;18.774;2022-07-23T10:12:11;6.93;;;5.30;;
41043;SDS011;51680;49.806;18.774;2022-07-23T10:15:34;8.07;;;5.25;;
41043;SDS011;51680;49.806;18.774;2022-07-23T10:18:37;8.10;;;5.25;;
41043;SDS011;51680;49.806;18.774;2022-07-23T10:21:40;8.82;;;5.43;;
41043;SDS011;51680;49.806;18.774;2022-07-23T10:24:47;8.50;;;4.93;;
41043;SDS011;51680;49.806;18.774;2022-07-23T10:28:10;10.55;;;5.45;;
41043;SDS011;51680;49.806;18.774;2022-07-23T10:31:28;12.05;;;5.72;;
41043;SDS011;51680;49.806;18.774;2022-07-23T10:34:44;7.35;;;5.53;;
41043;SDS011;51680;49.806;18.774;2022-07-23T10:37:53;8.90;;;5.53;;
41043;SDS011;51680;49.806;18.774;2022-07-23T10:40:59;10.23;;;5.63;;
41043;SDS011;51680;49.806;18.774;2022-07-23T10:44:06;10.90;;;5.80;;
41043;SDS011;51680;49.806;18.774;2022-07-23T10:47:09;9.25;;;6.22;;
41043;SDS011;51680;49.806;18.774;2022-07-23T10:50:22;9.07;;;5.97;;
41043;SDS011;51680;49.806;18.774;2022-07-23T10:53:26;8.15;;;5.40;;
41043;SDS011;51680;49.806;18.774;2022-07-23T11:00:12;7.28;;;5.47;;
41043;SDS011;51680;49.806;18.774;2022-07-23T11:03:28;9.23;;;5.60;;
41043;SDS011;51680;49.806;18.774;2022-07-23T11:10:11;16.88;;;5.65;;
41043;SDS011;51680;49.806;18.774;2022-07-23T11:13:40;8.88;;;5.43;;
41043;SDS011;51680;49.806;18.774;2022-07-23T11:16:46;9.23;;;5.82;;
41043;SDS011;51680;49.806;18.774;2022-07-23T11:23:15;9.43;;;5.82;;
41043;SDS011;51680;49.806;18.774;2022-07-23T11:29:48;9.25;;;5.40;;
41043;SDS011;51680;49.806;18.774;2022-07-23T11:32:51;7.13;;;5.22;;
41043;SDS011;51680;49.806;18.774;2022-07-23T11:36:00;8.70;;;5.50;;
41043;SDS011;51680;49.806;18.774;2022-07-23T11:39:04;6.50;;;5.03;;
41043;SDS011;51680;49.806;18.774;2022-07-23T11:42:09;7.88;;;5.85;;
41043;SDS011;51680;49.806;18.774;2022-07-23T11:45:11;6.57;;;5.30;;
41043;SDS011;51680;49.806;18.774;2022-07-23T11:48:17;7.20;;;5.45;;
41043;SDS011;51680;49.806;18.774;2022-07-23T11:51:24;7.07;;;5.65;;
41043;SDS011;51680;49.806;18.774;2022-07-23T11:54:27;10.32;;;5.47;;
41043;SDS011;51680;49.806;18.774;2022-07-23T11:57:31;7.72;;;5.50;;
41043;SDS011;51680;49.806;18.774;2022-07-23T12:00:34;9.43;;;6.00;;
41043;SDS011;51680;49.806;18.774;2022-07-23T12:03:35;8.75;;;5.35;;
41043;SDS011;51680;49.806;18.774;2022-07-23T12:06:37;12.57;;;5.53;;
41043;SDS011;51680;49.806;18.774;2022-07-23T12:09:43;10.13;;;5.60;;
41043;SDS011;51680;49.806;18.774;2022-07-23T12:12:47;7.60;;;5.40;;
41043;SDS011;51680;49.806;18.774;2022-07-23T12:15:51;8.23;;;5.35;;
41043;SDS011;51680;49.806;18.774;2022-07-23T12:18:54;8.30;;;5.90;;
41043;SDS011;51680;49.806;18.774;2022-07-23T12:21:57;9.80;;;5.63;;
41043;SDS011;51680;49.806;18.774;2022-07-23T12:24:59;10.85;;;5.68;;
41043;SDS011;51680;49.806;18.774;2022-07-23T12:28:07;12.25;;;6.03;;
41043;SDS011;51680;49.806;18.774;2022-07-23T12:31:10;6.65;;;5.95;;
41043;SDS011;51680;49.806;18.774;2022-07-23T12:34:13;8.23;;;6.00;;
41043;SDS011;51680;49.806;18.774;2022-07-23T12:37:29;10.73;;;5.88;;
41043;SDS011;51680;49.806;18.774;2022-07-23T12:40:32;12.40;;;6.28;;
41043;SDS011;51680;49.806;18.774;2022-07-23T12:43:38;7.85;;;5.57;;
41043;SDS011;51680;49.806;18.774;2022-07-23T12:46:41;8.30;;;5.55;;
41043;SDS011;51680;49.806;18.774;2022-07-23T12:49:43;10.10;;;5.80;;
41043;SDS011;51680;49.806;18.774;2022-07-23T12:52:44;11.20;;;5.53;;
41043;SDS011;51680;49.806;18.774;2022-07-23T12:55:47;11.57;;;6.05;;
41043;SDS011;51680;49.806;18.774;2022-07-23T12:58:51;13.27;;;5.93;;
41043;SDS011;51680;49.806;18.774;2022-07-23T13:01:55;10.48;;;6.13;;
41043;SDS011;51680;49.806;18.774;2022-07-23T13:04:59;7.70;;;5.57;;
41043;SDS011;51680;49.806;18.774;2022-07-23T13:08:00;7.57;;;5.90;;
41043;SDS011;51680;49.806;18.774;2022-07-23T13:11:03;7.60;;;6.25;;
41043;SDS011;51680;49.806;18.774;2022-07-23T13:14:07;8.50;;;5.90;;
41043;SDS011;51680;49.806;18.774;2022-07-23T13:17:09;10.23;;;6.10;;
41043;SDS011;51680;49.806;18.774;2022-07-23T13:20:11;11.23;;;6.63;;
41043;SDS011;51680;49.806;18.774;2022-07-23T13:23:13;6.47;;;5.78;;
41043;SDS011;51680;49.806;18.774;2022-07-23T13:26:16;8.90;;;6.32;;
41043;SDS011;51680;49.806;18.774;2022-07-23T13:29:19;8.98;;;5.40;;
41043;SDS011;51680;49.806;18.774;2022-07-23T13:32:21;8.48;;;5.68;;
41043;SDS011;51680;49.806;18.774;2022-07-23T13:35:23;7.35;;;5.90;;
41043;SDS011;51680;49.806;18.774;2022-07-23T13:38:25;9.98;;;5.63;;
41043;SDS011;51680;49.806;18.774;2022-07-23T13:41:27;9.02;;;5.82;;
41043;SDS011;51680;49.806;18.774;2022-07-23T13:44:31;7.80;;;5.93;;
41043;SDS011;51680;49.806;18.774;2022-07-23T13:47:32;22.10;;;7.55;;
41043;SDS011;51680;49.806;18.774;2022-07-23T13:50:35;7.82;;;6.05;;
41043;SDS011;51680;49.806;18.774;2022-07-23T13:53:37;8.93;;;6.55;;
41043;SDS011;51680;49.806;18.774;2022-07-23T13:56:39;8.95;;;6.28;;
41043;SDS011;51680;49.806;18.774;2022-07-23T13:59:42;12.00;;;7.25;;
41043;SDS011;51680;49.806;18.774;2022-07-23T14:05:46;8.93;;;6.20;;
41043;SDS011;51680;49.806;18.774;2022-07-23T14:08:48;10.38;;;6.28;;
41043;SDS011;51680;49.806;18.774;2022-07-23T14:11:49;9.35;;;6.00;;
41043;SDS011;51680;49.806;18.774;2022-07-23T14:14:53;12.10;;;6.50;;
41043;SDS011;51680;49.806;18.774;2022-07-23T14:17:55;13.35;;;6.72;;
41043;SDS011;51680;49.806;18.774;2022-07-23T14:20:57;13.98;;;7.22;;
41043;SDS011;51680;49.806;18.774;2022-07-23T14:23:59;13.55;;;7.00;;
41043;SDS011;51680;49.806;18.774;2022-07-23T14:27:01;10.45;;;6.60;;
41043;SDS011;51680;49.806;18.774;2022-07-23T14:30:06;9.80;;;6.38;;
41043;SDS011;51680;49.806;18.774;2022-07-23T14:33:09;10.10;;;6.07;;
41043;SDS011;51680;49.806;18.774;2022-07-23T14:36:11;7.20;;;5.82;;
41043;SDS011;51680;49.806;18.774;2022-07-23T14:39:12;12.55;;;5.97;;
41043;SDS011;51680;49.806;18.774;2022-07-23T14:42:14;10.15;;;6.38;;
41043;SDS011;51680;49.806;18.774;2022-07-23T14:45:17;8.50;;;5.85;;
41043;SDS011;51680;49.806;18.774;2022-07-23T14:48:19;9.73;;;5.80;;
41043;SDS011;51680;49.806;18.774;2022-07-23T14:51:21;12.77;;;5.90;;
41043;SDS011;51680;49.806;18.774;2022-07-23T14:54:23;8.68;;;5.47;;
41043;SDS011;51680;49.806;18.774;2022-07-23T14:57:26;10.13;;;6.13;;
41043;SDS011;51680;49.806;18.774;2022-07-23T15:00:29;9.35;;;5.40;;
41043;SDS011;51680;49.806;18.774;2022-07-23T15:03:30;15.98;;;5.93;;
41043;SDS011;51680;49.806;18.774;2022-07-23T15:06:32;13.98;;;6.65;;
41043;SDS011;51680;49.806;18.774;2022-07-23T15:09:34;11.00;;;6.10;;
41043;SDS011;51680;49.806;18.774;2022-07-23T15:12:36;15.10;;;6.10;;
41043;SDS011;51680;49.806;18.774;2022-07-23T15:15:57;9.63;;;6.60;;
41043;SDS011;51680;49.806;18.774;2022-07-23T15:18:59;13.65;;;6.93;;
41043;SDS011;51680;49.806;18.774;2022-07-23T15:22:01;11.70;;;7.07;;
41043;SDS011;51680;49.806;18.774;2022-07-23T15:25:04;14.30;;;6.82;;
41043;SDS011;51680;49.806;18.774;2022-07-23T15:28:07;11.43;;;6.60;;
41043;SDS011;51680;49.806;18.774;2022-07-23T15:31:10;13.60;;;7.15;;
41043;SDS011;51680;49.806;18.774;2022-07-23T15:34:12;13.38;;;7.65;;
41043;SDS011;51680;49.806;18.774;2022-07-23T15:37:14;15.88;;;7.10;;
41043;SDS011;51680;49.806;18.774;2022-07-23T15:40:15;12.20;;;7.63;;
41043;SDS011;51680;49.806;18.774;2022-07-23T15:43:17;12.05;;;7.53;;
41043;SDS011;51680;49.806;18.774;2022-07-23T15:46:20;16.30;;;7.30;;
41043;SDS011;51680;49.806;18.774;2022-07-23T15:49:23;15.45;;;7.60;;
41043;SDS011;51680;49.806;18.774;2022-07-23T15:52:25;12.25;;;7.85;;
41043;SDS011;51680;49.806;18.774;2022-07-23T15:55:27;14.85;;;7.85;;
41043;SDS011;51680;49.806;18.774;2022-07-23T15:58:29;14.85;;;8.35;;
41043;SDS011;51680;49.806;18.774;2022-07-23T16:01:32;11.43;;;8.48;;
41043;SDS011;51680;49.806;18.774;2022-07-23T16:04:34;13.35;;;8.18;;
41043;SDS011;51680;49.806;18.774;2022-07-23T16:07:37;13.35;;;7.63;;
41043;SDS011;51680;49.806;18.774;2022-07-23T16:10:39;11.43;;;8.13;;
41043;SDS011;51680;49.806;18.774;2022-07-23T16:13:40;12.32;;;7.50;;
41043;SDS011;51680;49.806;18.774;2022-07-23T16:16:44;11.23;;;8.43;;
41043;SDS011;51680;49.806;18.774;2022-07-23T16:19:46;12.65;;;7.70;;
41043;SDS011;51680;49.806;18.774;2022-07-23T16:22:48;16.80;;;7.70;;
41043;SDS011;51680;49.806;18.774;2022-07-23T16:25:49;10.73;;;7.57;;
41043;SDS011;51680;49.806;18.774;2022-07-23T16:28:51;11.57;;;7.35;;
41043;SDS011;51680;49.806;18.774;2022-07-23T16:31:55;11.68;;;7.53;;
41043;SDS011;51680;49.806;18.774;2022-07-23T16:34:56;10.43;;;7.18;;
41043;SDS011;51680;49.806;18.774;2022-07-23T16:37:59;12.68;;;7.70;;
41043;SDS011;51680;49.806;18.774;2022-07-23T16:41:02;9.00;;;7.65;;
41043;SDS011;51680;49.806;18.774;2022-07-23T16:44:04;12.07;;;8.05;;
41043;SDS011;51680;49.806;18.774;2022-07-23T16:47:08;15.23;;;8.80;;
41043;SDS011;51680;49.806;18.774;2022-07-23T16:50:10;11.82;;;7.20;;
41043;SDS011;51680;49.806;18.774;2022-07-23T16:53:12;11.90;;;7.47;;
41043;SDS011;51680;49.806;18.774;2022-07-23T16:56:13;17.45;;;8.18;;
41043;SDS011;51680;49.806;18.774;2022-07-23T16:59:15;12.13;;;7.75;;
41043;SDS011;51680;49.806;18.774;2022-07-23T17:02:18;13.00;;;8.18;;
41043;SDS011;51680;49.806;18.774;2022-07-23T17:05:20;11.68;;;8.07;;
41043;SDS011;51680;49.806;18.774;2022-07-23T17:08:22;12.88;;;8.30;;
41043;SDS011;51680;49.806;18.774;2022-07-23T17:11:24;13.07;;;8.55;;
41043;SDS011;51680;49.806;18.774;2022-07-23T17:14:25;16.48;;;8.90;;
41043;SDS011;51680;49.806;18.774;2022-07-23T17:17:29;15.80;;;8.60;;
41043;SDS011;51680;49.806;18.774;2022-07-23T17:20:31;15.30;;;9.45;;
41043;SDS011;51680;49.806;18.774;2022-07-23T17:23:32;21.20;;;8.68;;
41043;SDS011;51680;49.806;18.774;2022-07-23T17:26:34;14.65;;;8.25;;
41043;SDS011;51680;49.806;18.774;2022-07-23T17:29:36;22.65;;;9.68;;
41043;SDS011;51680;49.806;18.774;2022-07-23T17:32:39;11.57;;;8.30;;
41043;SDS011;51680;49.806;18.774;2022-07-23T17:35:41;12.77;;;8.48;;
41043;SDS011;51680;49.806;18.774;2022-07-23T17:38:43;13.30;;;8.57;;
41043;SDS011;51680;49.806;18.774;2022-07-23T17:41:44;19.90;;;9.10;;
41043;SDS011;51680;49.806;18.774;2022-07-23T17:47:51;17.95;;;9.68;;
41043;SDS011;51680;49.806;18.774;2022-07-23T17:50:54;13.23;;;9.00;;
41043;SDS011;51680;49.806;18.774;2022-07-23T17:54:15;16.75;;;10.32;;
41043;SDS011;51680;49.806;18.774;2022-07-23T17:57:16;26.40;;;16.60;;
41043;SDS011;51680;49.806;18.774;2022-07-23T18:00:20;20.52;;;10.43;;
41043;SDS011;51680;49.806;18.774;2022-07-23T18:03:27;18.80;;;10.52;;
41043;SDS011;51680;49.806;18.774;2022-07-23T18:06:29;13.18;;;10.10;;
41043;SDS011;51680;49.806;18.774;2022-07-23T18:09:30;16.30;;;9.90;;
41043;SDS011;51680;49.806;18.774;2022-07-23T18:12:32;19.90;;;12.38;;
41043;SDS011;51680;49.806;18.774;2022-07-23T18:15:35;25.63;;;16.73;;
41043;SDS011;51680;49.806;18.774;2022-07-23T18:18:38;20.95;;;15.93;;
41043;SDS011;51680;49.806;18.774;2022-07-23T18:21:39;20.15;;;12.38;;
41043;SDS011;51680;49.806;18.774;2022-07-23T18:24:41;16.60;;;10.93;;
41043;SDS011;51680;49.806;18.774;2022-07-23T18:27:43;20.05;;;10.88;;
41043;SDS011;51680;49.806;18.774;2022-07-23T18:30:45;17.15;;;11.10;;